createdAt,value
2023-08-08T00:00:13.668Z,100146.72
2023-08-08T00:02:59.994Z,100143.88
2023-08-08T00:05:26.736Z,100143.88
2023-08-08T00:07:52.982Z,100146.19
2023-08-08T00:10:19.451Z,100149.31
2023-08-08T00:12:45.812Z,100143.13
2023-08-08T00:15:12.351Z,100146.28
2023-08-08T00:17:38.858Z,100145.84
2023-08-08T00:20:05.918Z,100146.25
2023-08-08T00:22:32.132Z,100151.75
2023-08-08T00:24:59.265Z,100157.22
2023-08-08T00:27:25.516Z,100150.06
2023-08-08T00:29:53.496Z,100155.38
2023-08-08T00:32:19.678Z,100151.59
2023-08-08T00:34:46.085Z,100149.50
2023-08-08T00:37:12.234Z,100153.31
2023-08-08T00:39:39.654Z,100149.06
2023-08-08T00:42:06.068Z,100143.47
2023-08-08T00:44:32.518Z,100159.41
2023-08-08T00:46:58.762Z,100164.13
2023-08-08T00:49:25.387Z,100162.25
2023-08-08T00:51:51.886Z,100171.59
2023-08-08T00:54:18.505Z,100175.31
2023-08-08T00:56:44.663Z,100167.00
2023-08-08T00:59:13.098Z,100167.56
2023-08-08T01:01:39.254Z,100168.81
2023-08-08T01:04:07.429Z,100175.81
2023-08-08T01:06:36.645Z,100167.72
2023-08-08T01:09:21.887Z,100170.97
2023-08-08T01:11:50.188Z,100162.91
2023-08-08T01:14:19.263Z,100168.97
2023-08-08T01:16:46.287Z,100171.88
2023-08-08T01:19:22.678Z,100169.25
2023-08-08T01:21:50.983Z,100160.03
2023-08-08T01:24:22.751Z,100163.91
2023-08-08T01:26:49.567Z,100164.00
2023-08-08T01:29:16.119Z,100173.03
2023-08-08T01:31:42.275Z,100165.59
2023-08-08T01:34:08.916Z,100163.09
2023-08-08T01:36:52.308Z,100164.41
2023-08-08T01:39:25.483Z,100173.00
2023-08-08T01:41:54.376Z,100165.78
2023-08-08T01:44:23.514Z,100170.25
2023-08-08T01:46:50.056Z,100159.91
2023-08-08T01:49:16.492Z,100168.34
2023-08-08T01:51:42.620Z,100155.28
2023-08-08T01:54:09.306Z,100153.63
2023-08-08T01:56:35.794Z,100169.03
2023-08-08T01:59:02.359Z,100162.97
2023-08-08T02:01:28.627Z,100158.44
2023-08-08T02:03:55.206Z,100155.31
2023-08-08T02:06:22.283Z,100152.41
2023-08-08T02:08:49.127Z,100160.19
2023-08-08T02:11:15.388Z,100151.38
2023-08-08T02:13:42.385Z,100156.47
2023-08-08T02:16:08.593Z,100160.91
2023-08-08T02:18:36.476Z,100164.09
2023-08-08T02:21:02.654Z,100165.78
2023-08-08T02:23:29.057Z,100177.59
2023-08-08T02:25:55.253Z,100174.66
2023-08-08T02:28:21.781Z,100176.53
2023-08-08T02:30:47.910Z,100170.00
2023-08-08T02:33:14.390Z,100173.38
2023-08-08T02:35:40.811Z,100173.56
2023-08-08T02:38:07.247Z,100170.47
2023-08-08T02:40:34.008Z,100172.59
2023-08-08T02:43:01.492Z,100173.44
2023-08-08T02:45:27.668Z,100172.16
2023-08-08T02:47:55.041Z,100171.53
2023-08-08T02:50:21.365Z,100180.19
2023-08-08T02:52:47.992Z,100182.28
2023-08-08T02:55:14.259Z,100180.19
2023-08-08T02:57:42.334Z,100178.28
2023-08-08T03:00:08.883Z,100195.38
2023-08-08T03:02:39.905Z,100188.19
2023-08-08T03:05:06.930Z,100199.16
2023-08-08T03:07:33.550Z,100196.88
2023-08-08T03:10:00.167Z,100199.56
2023-08-08T03:12:26.688Z,100194.94
2023-08-08T03:14:54.115Z,100195.38
2023-08-08T03:17:20.702Z,100197.91
2023-08-08T03:19:46.996Z,100202.97
2023-08-08T03:22:14.662Z,100195.81
2023-08-08T03:24:41.616Z,100199.16
2023-08-08T03:27:08.057Z,100200.16
2023-08-08T03:29:34.582Z,100211.72
2023-08-08T03:32:01.030Z,100213.47
2023-08-08T03:34:30.859Z,100210.72
2023-08-08T03:36:57.645Z,100213.25
2023-08-08T03:39:25.032Z,100214.75
2023-08-08T03:41:51.872Z,100226.97
2023-08-08T03:44:18.644Z,100218.09
2023-08-08T03:46:45.307Z,100218.94
2023-08-08T03:49:13.852Z,100217.81
2023-08-08T03:51:40.508Z,100226.28
2023-08-08T03:54:06.945Z,100224.22
2023-08-08T03:56:33.815Z,100219.59
2023-08-08T03:59:00.371Z,100234.13
2023-08-08T04:01:27.207Z,100230.13
2023-08-08T04:03:53.616Z,100229.84
2023-08-08T04:06:20.043Z,100229.09
2023-08-08T04:08:46.376Z,100232.56
2023-08-08T04:11:12.873Z,100229.00
2023-08-08T04:13:39.050Z,100240.78
2023-08-08T04:16:05.608Z,100234.66
2023-08-08T04:18:31.742Z,100243.03
2023-08-08T04:20:58.216Z,100251.59
2023-08-08T04:23:26.150Z,100247.84
2023-08-08T04:25:53.279Z,100255.59
2023-08-08T04:28:19.642Z,100244.13
2023-08-08T04:30:46.505Z,100250.28
2023-08-08T04:33:12.720Z,100251.91
2023-08-08T04:35:39.226Z,100252.63
2023-08-08T04:38:05.393Z,100253.25
2023-08-08T04:40:31.921Z,100255.94
2023-08-08T04:42:58.371Z,100264.16
2023-08-08T04:45:27.619Z,100254.97
2023-08-08T04:47:53.832Z,100260.50
2023-08-08T04:50:20.720Z,100257.34
2023-08-08T04:52:47.109Z,100261.88
2023-08-08T04:55:13.678Z,100254.03
2023-08-08T04:57:39.998Z,100262.09
2023-08-08T05:00:08.975Z,100269.03
2023-08-08T05:02:36.510Z,100264.81
2023-08-08T05:05:03.911Z,100269.50
2023-08-08T05:07:30.476Z,100261.63
2023-08-08T05:09:57.080Z,100274.44
2023-08-08T05:12:24.025Z,100279.63
2023-08-08T05:14:51.729Z,100277.41
2023-08-08T05:17:18.419Z,100270.31
2023-08-08T05:19:45.117Z,100268.47
2023-08-08T05:22:11.398Z,100280.91
2023-08-08T05:24:38.540Z,100268.81
2023-08-08T05:27:05.519Z,100273.69
2023-08-08T05:29:32.488Z,100271.41
2023-08-08T05:31:58.889Z,100270.94
2023-08-08T05:34:25.736Z,100279.38
2023-08-08T05:37:05.803Z,100281.53
2023-08-08T05:39:39.059Z,100278.06
2023-08-08T05:42:06.272Z,100282.91
2023-08-08T05:44:33.330Z,100280.44
2023-08-08T05:46:59.466Z,100272.13
2023-08-08T05:49:26.014Z,100279.25
2023-08-08T05:51:52.205Z,100276.78
2023-08-08T05:54:18.791Z,100275.56
2023-08-08T05:56:45.292Z,100279.19
2023-08-08T05:59:11.948Z,100279.34
2023-08-08T06:01:38.237Z,100283.38
2023-08-08T06:04:05.027Z,100282.78
2023-08-08T06:06:31.366Z,100281.09
2023-08-08T06:08:57.916Z,100289.16
2023-08-08T06:11:24.575Z,100276.81
2023-08-08T06:13:51.185Z,100284.75
2023-08-08T06:16:18.988Z,100286.44
2023-08-08T06:18:45.521Z,100292.97
2023-08-08T06:21:12.037Z,100307.03
2023-08-08T06:23:38.664Z,100291.56
2023-08-08T06:26:05.903Z,100298.47
2023-08-08T06:28:32.647Z,100295.03
2023-08-08T06:30:59.069Z,100304.22
2023-08-08T06:33:25.530Z,100291.44
2023-08-08T06:35:51.668Z,100305.09
2023-08-08T06:38:18.273Z,100289.84
2023-08-08T06:40:44.447Z,100295.66
2023-08-08T06:43:10.844Z,100304.50
2023-08-08T06:45:37.153Z,100303.59
2023-08-08T06:48:04.187Z,100302.84
2023-08-08T06:50:30.544Z,100308.44
2023-08-08T06:52:57.256Z,100307.22
2023-08-08T06:55:24.827Z,100308.53
2023-08-08T06:57:51.488Z,100303.91
2023-08-08T07:00:17.964Z,100304.19
2023-08-08T07:02:44.568Z,100309.25
2023-08-08T07:05:11.154Z,100299.03
2023-08-08T07:07:38.471Z,100309.78
2023-08-08T07:10:06.858Z,100309.31
2023-08-08T07:12:33.455Z,100303.09
2023-08-08T07:14:59.587Z,100307.91
2023-08-08T07:17:26.201Z,100321.38
2023-08-08T07:19:52.543Z,100303.84
2023-08-08T07:22:18.991Z,100301.44
2023-08-08T07:24:45.294Z,100315.16
2023-08-08T07:27:11.742Z,100315.72
2023-08-08T07:29:37.952Z,100308.75
2023-08-08T07:32:05.197Z,100312.81
2023-08-08T07:34:32.579Z,100310.16
2023-08-08T07:36:59.712Z,100331.03
2023-08-08T07:39:26.419Z,100333.31
2023-08-08T07:41:53.642Z,100329.66
2023-08-08T07:44:19.919Z,100335.31
2023-08-08T07:46:46.518Z,100335.09
2023-08-08T07:49:13.730Z,100327.63
2023-08-08T07:51:40.135Z,100335.09
2023-08-08T07:54:08.892Z,100328.03
2023-08-08T07:56:36.092Z,100329.63
2023-08-08T07:59:02.592Z,100327.13
2023-08-08T08:01:29.567Z,100333.16
2023-08-08T08:03:56.176Z,100333.41
2023-08-08T08:06:22.720Z,100336.69
2023-08-08T08:08:48.921Z,100338.22
2023-08-08T08:11:17.045Z,100328.97
2023-08-08T08:13:43.506Z,100334.31
2023-08-08T08:16:10.077Z,100330.53
2023-08-08T08:18:36.581Z,100335.50
2023-08-08T08:21:03.157Z,100333.16
2023-08-08T08:23:29.378Z,100330.50
2023-08-08T08:25:56.117Z,100333.34
2023-08-08T08:28:22.734Z,100329.56
2023-08-08T08:30:50.160Z,100335.91
2023-08-08T08:33:16.449Z,100333.03
2023-08-08T08:35:43.165Z,100338.34
2023-08-08T08:38:10.474Z,100335.91
2023-08-08T08:40:40.875Z,100322.94
2023-08-08T08:43:08.453Z,100321.56
2023-08-08T08:45:39.679Z,100320.84
2023-08-08T08:48:10.301Z,100311.44
2023-08-08T08:50:39.948Z,100318.16
2023-08-08T08:53:06.561Z,100319.16
2023-08-08T08:55:33.210Z,100315.13
2023-08-08T08:57:59.981Z,100319.31
2023-08-08T09:00:46.294Z,100322.19
2023-08-08T09:03:14.302Z,100334.09
2023-08-08T09:05:42.523Z,100330.41
2023-08-08T09:08:09.722Z,100337.19
2023-08-08T09:10:36.232Z,100329.38
2023-08-08T09:13:02.549Z,100334.94
2023-08-08T09:15:33.174Z,100330.91
2023-08-08T09:17:59.381Z,100325.44
2023-08-08T09:20:29.985Z,100324.16
2023-08-08T09:22:57.437Z,100327.81
2023-08-08T09:25:24.768Z,100330.69
2023-08-08T09:27:53.727Z,100326.81
2023-08-08T09:30:20.765Z,100327.97
2023-08-08T09:32:47.725Z,100333.13
2023-08-08T09:35:15.540Z,100329.78
2023-08-08T09:37:42.631Z,100331.81
2023-08-08T09:40:11.513Z,100327.44
2023-08-08T09:42:38.141Z,100321.28
2023-08-08T09:45:05.149Z,100344.81
2023-08-08T09:47:32.195Z,100324.31
2023-08-08T09:50:05.258Z,100333.38
2023-08-08T09:52:33.729Z,100333.97
2023-08-08T09:55:00.804Z,100329.56
2023-08-08T09:57:27.469Z,100330.88
2023-08-08T09:59:53.950Z,100324.59
2023-08-08T10:02:20.664Z,100318.94
2023-08-08T10:04:47.172Z,100323.72
2023-08-08T10:07:14.278Z,100308.41
2023-08-08T10:09:41.028Z,100303.06
2023-08-08T10:12:09.191Z,100306.31
2023-08-08T10:14:38.147Z,100306.94
2023-08-08T10:17:06.622Z,100318.22
2023-08-08T10:19:34.075Z,100312.91
2023-08-08T10:22:04.727Z,100312.66
2023-08-08T10:24:37.257Z,100313.56
2023-08-08T10:27:04.767Z,100309.50
2023-08-08T10:29:34.078Z,100314.47
2023-08-08T10:32:06.406Z,100316.88
2023-08-08T10:34:39.597Z,100306.69
2023-08-08T10:37:11.809Z,100308.50
2023-08-08T10:39:38.654Z,100304.91
2023-08-08T10:42:05.569Z,100318.19
2023-08-08T10:44:32.521Z,100328.06
2023-08-08T10:47:00.864Z,100329.34
2023-08-08T10:49:27.055Z,100314.47
2023-08-08T10:51:53.781Z,100314.16
2023-08-08T10:54:23.639Z,100316.84
2023-08-08T10:56:51.988Z,100308.31
2023-08-08T10:59:24.654Z,100314.75
2023-08-08T11:01:52.828Z,100308.06
2023-08-08T11:04:20.840Z,100301.31
2023-08-08T11:06:47.865Z,100306.47
2023-08-08T11:09:15.224Z,100311.44
2023-08-08T11:11:43.499Z,100299.88
2023-08-08T11:14:21.253Z,100306.31
2023-08-08T11:16:50.240Z,100304.25
2023-08-08T11:19:19.177Z,100302.94
2023-08-08T11:21:49.033Z,100316.47
2023-08-08T11:24:15.902Z,100315.78
2023-08-08T11:26:45.567Z,100317.38
2023-08-08T11:29:11.959Z,100315.72
2023-08-08T11:31:38.604Z,100312.19
2023-08-08T11:34:05.748Z,100304.84
2023-08-08T11:36:35.989Z,100305.69
2023-08-08T11:39:08.575Z,100289.97
2023-08-08T11:41:36.312Z,100308.81
2023-08-08T11:44:04.304Z,100308.91
2023-08-08T11:46:30.848Z,100315.38
2023-08-08T11:49:07.455Z,100328.47
2023-08-08T11:51:35.230Z,100330.47
2023-08-08T11:54:04.519Z,100328.41
2023-08-08T11:56:34.721Z,100335.28
2023-08-08T11:59:02.237Z,100333.00
2023-08-08T12:01:30.968Z,100352.78
2023-08-08T12:03:57.529Z,100344.94
2023-08-08T12:06:29.336Z,100330.91
2023-08-08T12:08:56.219Z,100326.72
2023-08-08T12:11:25.467Z,100300.28
2023-08-08T12:13:59.532Z,100321.78
2023-08-08T12:16:30.650Z,100320.47
2023-08-08T12:18:57.143Z,100308.94
2023-08-08T12:21:23.613Z,100310.88
2023-08-08T12:23:50.025Z,100327.19
2023-08-08T12:26:16.609Z,100309.84
2023-08-08T12:28:42.911Z,100311.59
2023-08-08T12:31:09.630Z,100317.47
2023-08-08T12:33:35.931Z,100317.25
2023-08-08T12:36:02.599Z,100319.47
2023-08-08T12:38:29.083Z,100313.38
2023-08-08T12:40:56.491Z,100310.00
2023-08-08T12:43:22.729Z,100298.50
2023-08-08T12:45:49.617Z,100304.22
2023-08-08T12:48:15.894Z,100302.97
2023-08-08T12:50:42.939Z,100295.22
2023-08-08T12:53:09.654Z,100286.75
2023-08-08T12:55:37.966Z,100296.25
2023-08-08T12:58:04.451Z,100304.88
2023-08-08T13:00:31.228Z,100304.91
2023-08-08T13:02:58.362Z,100299.50
2023-08-08T13:05:26.124Z,100290.25
2023-08-08T13:07:52.384Z,100292.25
2023-08-08T13:10:20.604Z,100279.31
2023-08-08T13:12:48.134Z,100287.53
2023-08-08T13:15:15.551Z,100295.22
2023-08-08T13:17:42.393Z,100287.72
2023-08-08T13:20:09.899Z,100288.34
2023-08-08T13:22:36.295Z,100277.53
2023-08-08T13:25:03.439Z,100283.84
2023-08-08T13:27:29.793Z,100269.94
2023-08-08T13:29:56.326Z,100271.16
2023-08-08T13:32:22.599Z,100266.81
2023-08-08T13:34:49.465Z,100273.00
2023-08-08T13:37:16.694Z,100267.97
2023-08-08T13:39:43.451Z,100267.75
2023-08-08T13:42:09.823Z,100269.19
2023-08-08T13:44:36.485Z,100263.56
2023-08-08T13:47:03.182Z,100265.00
2023-08-08T13:49:29.835Z,100266.84
2023-08-08T13:51:56.303Z,100257.09
2023-08-08T13:54:23.171Z,100250.97
2023-08-08T13:56:49.686Z,100258.22
2023-08-08T13:59:17.037Z,100252.03
2023-08-08T14:01:43.645Z,100254.00
2023-08-08T14:04:10.547Z,100253.03
2023-08-08T14:06:37.012Z,100252.34
2023-08-08T14:09:04.668Z,100256.56
2023-08-08T14:11:31.015Z,100262.81
2023-08-08T14:13:57.604Z,100272.44
2023-08-08T14:16:23.866Z,100273.56
2023-08-08T14:18:50.635Z,100294.91
2023-08-08T14:21:17.303Z,100308.59
2023-08-08T14:23:45.059Z,100312.97
2023-08-08T14:26:11.997Z,100323.72
2023-08-08T14:28:38.703Z,100320.44
2023-08-08T14:31:06.643Z,100323.19
2023-08-08T14:33:34.122Z,100320.69
2023-08-08T14:36:00.644Z,100299.66
2023-08-08T14:38:28.045Z,100288.28
2023-08-08T14:40:55.242Z,100284.56
2023-08-08T14:43:23.861Z,100282.81
2023-08-08T14:45:51.954Z,100281.97
2023-08-08T14:48:18.879Z,100284.34
2023-08-08T14:50:45.368Z,100285.81
2023-08-08T14:53:12.227Z,100289.44
2023-08-08T14:55:38.611Z,100286.59
2023-08-08T14:58:05.195Z,100282.72
2023-08-08T15:00:31.852Z,100282.00
2023-08-08T15:02:58.559Z,100282.25
2023-08-08T15:05:25.313Z,100283.66
2023-08-08T15:07:51.924Z,100282.19
2023-08-08T15:10:18.388Z,100278.00
2023-08-08T15:12:46.415Z,100277.19
2023-08-08T15:15:13.077Z,100282.97
2023-08-08T15:17:39.660Z,100280.56
2023-08-08T15:20:06.741Z,100282.16
2023-08-08T15:22:33.510Z,100278.78
2023-08-08T15:24:59.868Z,100273.34
2023-08-08T15:27:26.550Z,100276.03
2023-08-08T15:29:52.868Z,100274.25
2023-08-08T15:32:19.638Z,100280.38
2023-08-08T15:34:46.124Z,100280.25
2023-08-08T15:37:14.066Z,100290.44
2023-08-08T15:39:40.897Z,100289.44
2023-08-08T15:42:07.649Z,100309.25
2023-08-08T15:44:34.270Z,100322.34
2023-08-08T15:47:01.383Z,100340.84
2023-08-08T15:49:28.148Z,100340.22
2023-08-08T15:51:57.174Z,100334.53
2023-08-08T15:54:24.480Z,100338.41
2023-08-08T15:56:52.020Z,100339.22
2023-08-08T15:59:18.621Z,100315.16
2023-08-08T16:01:45.647Z,100332.75
2023-08-08T16:04:15.281Z,100340.13
2023-08-08T16:06:42.057Z,100336.25
2023-08-08T16:09:08.943Z,100328.63
2023-08-08T16:11:35.742Z,100327.59
2023-08-08T16:14:02.789Z,100333.56
2023-08-08T16:16:29.538Z,100341.63
2023-08-08T16:18:55.936Z,100338.06
2023-08-08T16:21:22.596Z,100349.00
2023-08-08T16:23:48.893Z,100352.91
2023-08-08T16:26:16.366Z,100358.19
2023-08-08T16:28:43.220Z,100359.16
2023-08-08T16:31:10.792Z,100361.69
2023-08-08T16:33:37.187Z,100370.53
2023-08-08T16:36:04.420Z,100358.91
2023-08-08T16:38:32.074Z,100367.91
2023-08-08T16:40:58.776Z,100382.81
2023-08-08T16:43:25.705Z,100364.38
2023-08-08T16:45:52.585Z,100368.03
2023-08-08T16:48:19.242Z,100357.63
2023-08-08T16:50:45.855Z,100366.97
2023-08-08T16:53:12.332Z,100365.44
2023-08-08T16:55:39.160Z,100360.53
2023-08-08T16:58:05.686Z,100365.25
2023-08-08T17:00:32.769Z,100368.88
2023-08-08T17:02:59.591Z,100370.53
2023-08-08T17:05:26.538Z,100372.75
2023-08-08T17:07:53.075Z,100373.91
2023-08-08T17:10:19.701Z,100371.63
2023-08-08T17:15:12.814Z,100382.34
2023-08-08T17:17:39.389Z,100396.19
2023-08-08T17:20:06.674Z,100403.75
2023-08-08T17:22:33.496Z,100406.63
2023-08-08T17:25:00.710Z,100400.09
2023-08-08T17:27:27.509Z,100381.50
2023-08-08T17:29:54.215Z,100385.34
2023-08-08T17:32:20.990Z,100379.44
2023-08-08T17:34:47.796Z,100376.22
2023-08-08T17:37:14.428Z,100381.56
2023-08-08T17:39:41.086Z,100379.59
2023-08-08T17:42:07.627Z,100389.63
2023-08-08T17:44:34.428Z,100390.91
2023-08-08T17:47:00.850Z,100378.81
2023-08-08T17:49:28.078Z,100373.47
2023-08-08T17:51:54.510Z,100381.91
2023-08-08T17:54:21.341Z,100376.47
2023-08-08T17:56:48.334Z,100382.88
2023-08-08T17:59:15.145Z,100381.56
2023-08-08T18:01:43.729Z,100371.66
2023-08-08T18:04:12.488Z,100380.06
2023-08-08T18:06:38.915Z,100379.50
2023-08-08T18:09:06.005Z,100378.03
2023-08-08T18:11:38.795Z,100384.72
2023-08-08T18:14:07.499Z,100371.28
2023-08-08T18:16:35.298Z,100378.91
2023-08-08T18:19:03.604Z,100383.34
2023-08-08T18:21:31.627Z,100383.66
2023-08-08T18:23:58.661Z,100391.84
2023-08-08T18:26:25.080Z,100387.19
2023-08-08T18:28:52.029Z,100394.09
2023-08-08T18:31:18.871Z,100392.81
2023-08-08T18:33:45.966Z,100387.94
2023-08-08T18:36:12.829Z,100392.38
2023-08-08T18:38:39.640Z,100389.28
2023-08-08T18:41:06.006Z,100394.72
2023-08-08T18:43:33.012Z,100399.25
2023-08-08T18:45:59.427Z,100394.88
2023-08-08T18:48:26.303Z,100401.94
2023-08-08T18:50:52.958Z,100401.16
2023-08-08T18:53:19.632Z,100402.84
2023-08-08T18:55:47.611Z,100408.38
2023-08-08T18:58:14.355Z,100415.19
2023-08-08T19:00:40.928Z,100418.22
2023-08-08T19:03:08.608Z,100416.53
2023-08-08T19:05:37.495Z,100413.41
2023-08-08T19:08:04.389Z,100414.88
2023-08-08T19:10:30.780Z,100421.81
2023-08-08T19:12:57.444Z,100431.38
2023-08-08T19:15:24.701Z,100421.88
2023-08-08T19:17:56.237Z,100426.53
2023-08-08T19:20:24.333Z,100431.16
2023-08-08T19:22:51.076Z,100430.94
2023-08-08T19:25:17.866Z,100431.53
2023-08-08T19:27:44.780Z,100433.69
2023-08-08T19:30:12.005Z,100430.94
2023-08-08T19:32:39.274Z,100425.03
2023-08-08T19:35:06.082Z,100430.78
2023-08-08T19:37:33.005Z,100436.34
2023-08-08T19:39:59.509Z,100440.38
2023-08-08T19:42:26.399Z,100438.63
2023-08-08T19:44:52.874Z,100440.94
2023-08-08T19:47:19.728Z,100439.50
2023-08-08T19:49:46.884Z,100449.19
2023-08-08T19:52:13.918Z,100427.69
2023-08-08T19:54:40.379Z,100443.25
2023-08-08T19:57:07.292Z,100438.34
2023-08-08T19:59:33.940Z,100443.56
2023-08-08T20:02:01.341Z,100448.66
2023-08-08T20:04:28.519Z,100449.94
2023-08-08T20:06:55.371Z,100459.28
2023-08-08T20:09:22.516Z,100463.50
2023-08-08T20:11:49.443Z,100462.38
2023-08-08T20:14:16.082Z,100487.94
2023-08-08T20:16:42.754Z,100495.75
2023-08-08T20:19:09.344Z,100506.09
2023-08-08T20:21:36.228Z,100503.63
2023-08-08T20:24:04.024Z,100509.63
2023-08-08T20:26:31.490Z,100516.88
2023-08-08T20:28:57.995Z,100504.81
2023-08-08T20:31:24.834Z,100499.91
2023-08-08T20:33:52.792Z,100501.63
2023-08-08T20:36:19.889Z,100494.28
2023-08-08T20:38:48.739Z,100475.03
2023-08-08T20:41:15.674Z,100461.47
2023-08-08T20:43:42.592Z,100464.25
2023-08-08T20:46:15.157Z,100452.50
2023-08-08T20:48:42.199Z,100442.91
2023-08-08T20:51:08.840Z,100425.19
2023-08-08T20:53:35.591Z,100433.25
2023-08-08T20:56:04.026Z,100450.09
2023-08-08T20:58:32.147Z,100438.94
2023-08-08T21:00:59.283Z,100432.19
2023-08-08T21:03:25.883Z,100435.06
2023-08-08T21:05:52.817Z,100429.16
2023-08-08T21:08:19.246Z,100434.72
2023-08-08T21:10:46.057Z,100434.72
2023-08-08T21:13:12.718Z,100436.97
2023-08-08T21:15:39.523Z,100428.09
2023-08-08T21:18:05.998Z,100436.56
2023-08-08T21:20:32.678Z,100428.06
2023-08-08T21:22:59.243Z,100442.06
2023-08-08T21:25:26.275Z,100441.00
2023-08-08T21:27:52.622Z,100440.13
2023-08-08T21:30:19.259Z,100447.53
2023-08-08T21:32:45.697Z,100453.81
2023-08-08T21:35:12.525Z,100453.44
2023-08-08T21:37:40.484Z,100447.97
2023-08-08T21:40:10.702Z,100452.00
2023-08-08T21:42:38.886Z,100454.47
2023-08-08T21:45:06.576Z,100451.16
2023-08-08T21:47:34.239Z,100462.00
2023-08-08T21:50:00.852Z,100466.88
2023-08-08T21:52:27.734Z,100461.16
2023-08-08T21:54:54.390Z,100456.75
2023-08-08T21:57:21.231Z,100454.84
2023-08-08T21:59:47.417Z,100466.25
2023-08-08T22:02:14.321Z,100471.31
2023-08-08T22:04:42.635Z,100470.47
2023-08-08T22:07:09.719Z,100483.38
2023-08-08T22:09:35.977Z,100477.47
2023-08-08T22:12:03.969Z,100468.81
2023-08-08T22:14:30.257Z,100470.09
2023-08-08T22:16:56.810Z,100470.91
2023-08-08T22:19:23.052Z,100475.78
2023-08-08T22:21:49.727Z,100472.41
2023-08-08T22:24:15.949Z,100490.56
2023-08-08T22:26:42.416Z,100480.84
2023-08-08T22:29:08.630Z,100487.41
2023-08-08T22:31:35.280Z,100484.44
2023-08-08T22:34:01.594Z,100475.56
2023-08-08T22:36:28.231Z,100467.53
2023-08-08T22:38:54.514Z,100475.78
2023-08-08T22:41:21.264Z,100478.09
2023-08-08T22:43:47.504Z,100478.31
2023-08-08T22:46:14.067Z,100477.44
2023-08-08T22:48:40.457Z,100481.91
2023-08-08T22:51:09.872Z,100483.16
2023-08-08T22:53:36.194Z,100482.31
2023-08-08T22:56:02.719Z,100485.28
2023-08-08T22:58:28.983Z,100472.38
2023-08-08T23:00:55.726Z,100477.03
2023-08-08T23:03:22.058Z,100473.44
2023-08-08T23:05:48.839Z,100482.53
2023-08-08T23:08:15.165Z,100476.84
2023-08-08T23:10:41.701Z,100471.56
2023-08-08T23:13:07.963Z,100472.81
2023-08-08T23:15:34.572Z,100471.75
2023-08-08T23:18:00.867Z,100476.63
2023-08-08T23:20:28.165Z,100475.56
2023-08-08T23:22:54.451Z,100478.94
2023-08-08T23:25:23.177Z,100476.81
2023-08-08T23:27:50.013Z,100475.53
2023-08-08T23:30:16.621Z,100469.63
2023-08-08T23:32:46.796Z,100472.63
2023-08-08T23:35:20.342Z,100473.66
2023-08-08T23:37:46.576Z,100472.38
2023-08-08T23:40:13.589Z,100474.72
2023-08-08T23:42:39.855Z,100482.75
2023-08-08T23:45:07.122Z,100492.25
2023-08-08T23:47:33.472Z,100485.69
2023-08-08T23:50:00.058Z,100487.59
2023-08-08T23:52:26.401Z,100478.09
2023-08-08T23:54:53.001Z,100492.88
2023-08-08T23:57:19.274Z,100490.78
2023-08-08T23:59:45.774Z,100493.94
